sensor_id;sensor_type;location;lat;lon;timestamp;pressure;altitude;pressure_sealevel;temperature;humidity
54453;BME280;40363;52.270;10.546;2022-09-03T00:01:27;76148.13;;;-147.06;48.84
54453;BME280;40363;52.270;10.546;2022-09-03T00:06:25;76158.38;;;-147.06;49.27
54453;BME280;40363;52.270;10.546;2022-09-03T00:08:57;76162.50;;;-147.06;49.29
54453;BME280;40363;52.270;10.546;2022-09-03T00:11:30;76164.56;;;-147.06;49.16
54453;BME280;40363;52.270;10.546;2022-09-03T00:14:03;76164.56;;;-147.06;49.12
54453;BME280;40363;52.270;10.546;2022-09-03T00:16:39;76172.78;;;-147.06;49.21
54453;BME280;40363;52.270;10.546;2022-09-03T00:19:07;76172.78;;;-147.06;49.42
54453;BME280;40363;52.270;10.546;2022-09-03T00:21:38;76176.88;;;-147.06;49.52
54453;BME280;40363;52.270;10.546;2022-09-03T00:24:11;76183.06;;;-147.06;49.34
54453;BME280;40363;52.270;10.546;2022-09-03T00:26:42;76176.88;;;-147.06;49.43
54453;BME280;40363;52.270;10.546;2022-09-03T00:29:14;76185.09;;;-147.06;49.74
54453;BME280;40363;52.270;10.546;2022-09-03T00:31:44;76181.00;;;-147.06;49.82
54453;BME280;40363;52.270;10.546;2022-09-03T00:34:25;76187.16;;;-147.06;49.97
54453;BME280;40363;52.270;10.546;2022-09-03T00:36:55;76201.56;;;-147.06;50.17
54453;BME280;40363;52.270;10.546;2022-09-03T00:39:25;76205.66;;;-147.06;50.33
54453;BME280;40363;52.270;10.546;2022-09-03T00:42:02;76209.78;;;-147.06;50.33
54453;BME280;40363;52.270;10.546;2022-09-03T00:44:49;76224.16;;;-147.06;50.75
54453;BME280;40363;52.270;10.546;2022-09-03T00:47:25;76230.31;;;-147.06;50.92
54453;BME280;40363;52.270;10.546;2022-09-03T00:49:57;76224.16;;;-147.06;50.91
54453;BME280;40363;52.270;10.546;2022-09-03T00:52:37;76230.31;;;-147.06;50.70
54453;BME280;40363;52.270;10.546;2022-09-03T00:55:19;76232.38;;;-147.06;50.93
54453;BME280;40363;52.270;10.546;2022-09-03T00:57:58;76222.09;;;-147.06;50.75
54453;BME280;40363;52.270;10.546;2022-09-03T01:00:30;76224.16;;;-147.06;50.53
54453;BME280;40363;52.270;10.546;2022-09-03T01:03:04;76230.31;;;-147.06;50.71
54453;BME280;40363;52.270;10.546;2022-09-03T01:05:45;76230.31;;;-147.06;51.03
54453;BME280;40363;52.270;10.546;2022-09-03T01:08:24;76236.50;;;-147.06;51.05
54453;BME280;40363;52.270;10.546;2022-09-03T01:11:06;76240.59;;;-147.06;50.89
54453;BME280;40363;52.270;10.546;2022-09-03T01:13:41;76246.75;;;-147.06;51.07
54453;BME280;40363;52.270;10.546;2022-09-03T01:16:20;76242.66;;;-147.06;51.07
54453;BME280;40363;52.270;10.546;2022-09-03T01:18:56;76246.75;;;-147.06;51.11
54453;BME280;40363;52.270;10.546;2022-09-03T01:21:52;76244.72;;;-147.06;50.87
54453;BME280;40363;52.270;10.546;2022-09-03T01:24:57;76248.81;;;-147.06;50.75
54453;BME280;40363;52.270;10.546;2022-09-03T01:27:45;76246.75;;;-147.06;50.93
54453;BME280;40363;52.270;10.546;2022-09-03T01:30:14;76248.81;;;-147.06;51.11
54453;BME280;40363;52.270;10.546;2022-09-03T01:32:47;76259.09;;;-147.06;50.95
54453;BME280;40363;52.270;10.546;2022-09-03T01:35:22;76263.22;;;-147.06;51.23
54453;BME280;40363;52.270;10.546;2022-09-03T01:38:05;76271.44;;;-147.06;51.24
54453;BME280;40363;52.270;10.546;2022-09-03T01:40:41;76283.75;;;-147.06;51.28
54453;BME280;40363;52.270;10.546;2022-09-03T01:43:27;76283.75;;;-147.06;51.33
54453;BME280;40363;52.270;10.546;2022-09-03T01:46:02;76283.75;;;-147.06;51.45
54453;BME280;40363;52.270;10.546;2022-09-03T01:48:39;76271.44;;;-147.06;51.36
54453;BME280;40363;52.270;10.546;2022-09-03T01:51:14;76289.94;;;-147.06;51.21
54453;BME280;40363;52.270;10.546;2022-09-03T01:53:59;76291.97;;;-147.06;51.32
54453;BME280;40363;52.270;10.546;2022-09-03T01:56:42;76294.03;;;-147.06;51.33
54453;BME280;40363;52.270;10.546;2022-09-03T01:59:15;76300.19;;;-147.06;51.50
54453;BME280;40363;52.270;10.546;2022-09-03T02:01:52;76296.09;;;-147.06;51.43
54453;BME280;40363;52.270;10.546;2022-09-03T02:04:23;76296.09;;;-147.06;51.69
54453;BME280;40363;52.270;10.546;2022-09-03T02:06:50;76300.19;;;-147.06;51.44
54453;BME280;40363;52.270;10.546;2022-09-03T02:09:18;76300.19;;;-147.06;51.84
54453;BME280;40363;52.270;10.546;2022-09-03T02:11:49;76302.25;;;-147.06;51.65
54453;BME280;40363;52.270;10.546;2022-09-03T02:14:19;76300.19;;;-147.06;51.47
54453;BME280;40363;52.270;10.546;2022-09-03T02:16:47;76300.19;;;-147.06;51.64
54453;BME280;40363;52.270;10.546;2022-09-03T02:19:15;76298.16;;;-147.06;51.43
54453;BME280;40363;52.270;10.546;2022-09-03T02:21:47;76312.53;;;-147.06;51.40
54453;BME280;40363;52.270;10.546;2022-09-03T02:24:15;76296.09;;;-147.06;51.60
54453;BME280;40363;52.270;10.546;2022-09-03T02:26:42;76304.31;;;-147.06;51.39
54453;BME280;40363;52.270;10.546;2022-09-03T02:29:11;76300.19;;;-147.06;51.25
54453;BME280;40363;52.270;10.546;2022-09-03T02:31:39;76304.31;;;-147.06;51.34
54453;BME280;40363;52.270;10.546;2022-09-03T02:34:06;76316.66;;;-147.06;51.50
54453;BME280;40363;52.270;10.546;2022-09-03T02:36:36;76312.53;;;-147.06;51.82
54453;BME280;40363;52.270;10.546;2022-09-03T02:39:04;76308.44;;;-147.06;51.74
54453;BME280;40363;52.270;10.546;2022-09-03T02:41:32;76298.16;;;-147.06;51.59
54453;BME280;40363;52.270;10.546;2022-09-03T02:44:02;76304.31;;;-147.06;51.74
54453;BME280;40363;52.270;10.546;2022-09-03T02:46:34;76304.31;;;-147.06;51.71
54453;BME280;40363;52.270;10.546;2022-09-03T02:49:01;76312.53;;;-147.06;51.95
54453;BME280;40363;52.270;10.546;2022-09-03T02:51:33;76316.66;;;-147.06;51.95
54453;BME280;40363;52.270;10.546;2022-09-03T02:54:00;76320.75;;;-147.06;52.06
54453;BME280;40363;52.270;10.546;2022-09-03T02:56:27;76345.41;;;-147.06;52.11
54453;BME280;40363;52.270;10.546;2022-09-03T02:58:54;76343.38;;;-147.06;52.34
54453;BME280;40363;52.270;10.546;2022-09-03T03:01:21;76343.38;;;-147.06;52.00
54453;BME280;40363;52.270;10.546;2022-09-03T03:03:48;76339.25;;;-147.06;51.87
54453;BME280;40363;52.270;10.546;2022-09-03T03:06:15;76331.03;;;-147.06;52.17
54453;BME280;40363;52.270;10.546;2022-09-03T03:08:47;76328.97;;;-147.06;52.11
54453;BME280;40363;52.270;10.546;2022-09-03T03:11:14;76341.31;;;-147.06;52.19
54453;BME280;40363;52.270;10.546;2022-09-03T03:13:43;76337.19;;;-147.06;52.34
54453;BME280;40363;52.270;10.546;2022-09-03T03:16:11;76337.19;;;-147.06;52.59
54453;BME280;40363;52.270;10.546;2022-09-03T03:18:38;76343.38;;;-147.06;52.42
54453;BME280;40363;52.270;10.546;2022-09-03T03:21:05;76345.41;;;-147.06;52.47
54453;BME280;40363;52.270;10.546;2022-09-03T03:23:32;76353.63;;;-147.06;52.80
54453;BME280;40363;52.270;10.546;2022-09-03T03:26:01;76353.63;;;-147.06;52.80
54453;BME280;40363;52.270;10.546;2022-09-03T03:28:28;76359.81;;;-147.06;53.03
54453;BME280;40363;52.270;10.546;2022-09-03T03:30:58;76349.53;;;-147.06;52.85
54453;BME280;40363;52.270;10.546;2022-09-03T03:33:25;76368.03;;;-147.06;53.42
54453;BME280;40363;52.270;10.546;2022-09-03T03:35:52;76368.03;;;-147.06;53.57
54453;BME280;40363;52.270;10.546;2022-09-03T03:38:19;76380.34;;;-147.06;53.93
54453;BME280;40363;52.270;10.546;2022-09-03T03:40:45;76386.53;;;-147.06;54.23
54453;BME280;40363;52.270;10.546;2022-09-03T03:43:13;76394.75;;;-147.06;54.33
54453;BME280;40363;52.270;10.546;2022-09-03T03:45:40;76400.91;;;-147.06;54.53
54453;BME280;40363;52.270;10.546;2022-09-03T03:48:07;76405.03;;;-147.06;54.56
54453;BME280;40363;52.270;10.546;2022-09-03T03:50:33;76415.31;;;-147.06;54.36
54453;BME280;40363;52.270;10.546;2022-09-03T03:53:00;76425.56;;;-147.06;54.54
54453;BME280;40363;52.270;10.546;2022-09-03T03:55:27;76437.91;;;-147.06;54.67
54453;BME280;40363;52.270;10.546;2022-09-03T03:57:54;76439.97;;;-147.06;54.67
54453;BME280;40363;52.270;10.546;2022-09-03T04:00:22;76437.91;;;-147.06;54.70
54453;BME280;40363;52.270;10.546;2022-09-03T04:02:49;76439.97;;;-147.06;54.75
54453;BME280;40363;52.270;10.546;2022-09-03T04:05:15;76442.03;;;-147.06;54.96
54453;BME280;40363;52.270;10.546;2022-09-03T04:07:42;76439.97;;;-147.06;54.85
54453;BME280;40363;52.270;10.546;2022-09-03T04:10:09;76444.06;;;-147.06;54.99
54453;BME280;40363;52.270;10.546;2022-09-03T04:12:36;76456.41;;;-147.06;54.96
54453;BME280;40363;52.270;10.546;2022-09-03T04:15:03;76460.53;;;-147.06;55.36
54453;BME280;40363;52.270;10.546;2022-09-03T04:17:32;76468.75;;;-147.06;55.49
54453;BME280;40363;52.270;10.546;2022-09-03T04:19:59;76460.53;;;-147.06;55.41
54453;BME280;40363;52.270;10.546;2022-09-03T04:22:27;76466.69;;;-147.06;55.54
54453;BME280;40363;52.270;10.546;2022-09-03T04:24:53;76476.97;;;-147.06;55.53
54453;BME280;40363;52.270;10.546;2022-09-03T04:27:20;76464.63;;;-147.06;55.76
54453;BME280;40363;52.270;10.546;2022-09-03T04:29:47;76464.63;;;-147.06;55.72
54453;BME280;40363;52.270;10.546;2022-09-03T04:32:13;76468.75;;;-147.06;55.88
54453;BME280;40363;52.270;10.546;2022-09-03T04:34:59;76472.84;;;-147.06;55.81
54453;BME280;40363;52.270;10.546;2022-09-03T04:37:26;76491.34;;;-147.06;56.35
54453;BME280;40363;52.270;10.546;2022-09-03T04:39:53;76483.13;;;-147.06;56.28
54453;BME280;40363;52.270;10.546;2022-09-03T04:42:19;76493.41;;;-147.06;56.48
54453;BME280;40363;52.270;10.546;2022-09-03T04:44:46;76497.50;;;-147.06;56.52
54453;BME280;40363;52.270;10.546;2022-09-03T04:47:13;76505.75;;;-147.06;56.79
54453;BME280;40363;52.270;10.546;2022-09-03T04:49:40;76491.34;;;-147.06;56.67
54453;BME280;40363;52.270;10.546;2022-09-03T04:52:09;76491.34;;;-147.06;56.43
54453;BME280;40363;52.270;10.546;2022-09-03T04:54:36;76481.06;;;-147.06;56.35
54453;BME280;40363;52.270;10.546;2022-09-03T04:57:03;76476.97;;;-147.06;56.24
54453;BME280;40363;52.270;10.546;2022-09-03T04:59:30;76487.25;;;-147.06;56.29
54453;BME280;40363;52.270;10.546;2022-09-03T05:01:57;76468.75;;;-147.06;56.38
54453;BME280;40363;52.270;10.546;2022-09-03T05:04:23;76468.75;;;-147.06;56.35
54453;BME280;40363;52.270;10.546;2022-09-03T05:06:50;76460.53;;;-147.06;56.13
54453;BME280;40363;52.270;10.546;2022-09-03T05:09:18;76452.28;;;-147.06;56.14
54453;BME280;40363;52.270;10.546;2022-09-03T05:11:45;76439.97;;;-147.06;56.17
54453;BME280;40363;52.270;10.546;2022-09-03T05:14:12;76450.25;;;-147.06;56.35
54453;BME280;40363;52.270;10.546;2022-09-03T05:16:39;76442.03;;;-147.06;56.19
54453;BME280;40363;52.270;10.546;2022-09-03T05:19:06;76433.78;;;-147.06;56.23
54453;BME280;40363;52.270;10.546;2022-09-03T05:21:34;76427.63;;;-147.06;56.32
54453;BME280;40363;52.270;10.546;2022-09-03T05:24:02;76431.75;;;-147.06;56.72
54453;BME280;40363;52.270;10.546;2022-09-03T05:26:34;76431.75;;;-147.06;57.00
54453;BME280;40363;52.270;10.546;2022-09-03T05:29:03;76435.84;;;-147.06;57.24
54453;BME280;40363;52.270;10.546;2022-09-03T05:31:33;76433.78;;;-147.06;57.33
54453;BME280;40363;52.270;10.546;2022-09-03T05:34:02;76423.53;;;-147.06;57.21
54453;BME280;40363;52.270;10.546;2022-09-03T05:36:31;76433.78;;;-147.06;57.30
54453;BME280;40363;52.270;10.546;2022-09-03T05:38:59;76431.75;;;-147.06;57.58
54453;BME280;40363;52.270;10.546;2022-09-03T05:41:27;76423.53;;;-147.06;57.39
54453;BME280;40363;52.270;10.546;2022-09-03T05:43:56;76411.19;;;-147.06;57.34
54453;BME280;40363;52.270;10.546;2022-09-03T05:46:25;76409.13;;;-147.06;57.69
54453;BME280;40363;52.270;10.546;2022-09-03T05:48:56;76409.13;;;-147.06;58.01
54453;BME280;40363;52.270;10.546;2022-09-03T05:51:23;76407.06;;;-147.06;57.72
54453;BME280;40363;52.270;10.546;2022-09-03T05:53:50;76378.31;;;-147.06;57.37
54453;BME280;40363;52.270;10.546;2022-09-03T05:56:19;76372.13;;;-147.06;57.76
54453;BME280;40363;52.270;10.546;2022-09-03T05:58:48;76347.47;;;-147.06;56.40
54453;BME280;40363;52.270;10.546;2022-09-03T06:01:18;76349.53;;;-147.06;56.53
54453;BME280;40363;52.270;10.546;2022-09-03T06:03:47;76328.97;;;-147.06;56.69
54453;BME280;40363;52.270;10.546;2022-09-03T06:06:14;76316.66;;;-147.06;55.35
54453;BME280;40363;52.270;10.546;2022-09-03T06:08:41;76304.31;;;-147.06;56.41
54453;BME280;40363;52.270;10.546;2022-09-03T06:11:10;76296.09;;;-147.06;56.48
54453;BME280;40363;52.270;10.546;2022-09-03T06:13:36;76275.53;;;-147.06;55.73
54453;BME280;40363;52.270;10.546;2022-09-03T06:23:02;76232.38;;;-147.06;53.97
54453;BME280;40363;52.270;10.546;2022-09-03T06:25:29;76201.56;;;-147.06;53.61
54453;BME280;40363;52.270;10.546;2022-09-03T06:27:56;76199.50;;;-147.06;52.83
54453;BME280;40363;52.270;10.546;2022-09-03T06:30:23;76183.06;;;-147.06;53.24
54453;BME280;40363;52.270;10.546;2022-09-03T06:32:51;76156.34;;;-147.06;52.57
54453;BME280;40363;52.270;10.546;2022-09-03T06:35:18;76144.00;;;-147.06;52.02
54453;BME280;40363;52.270;10.546;2022-09-03T06:37:48;76160.44;;;-147.06;51.55
54453;BME280;40363;52.270;10.546;2022-09-03T06:40:18;76090.56;;;-147.06;50.49
54453;BME280;40363;52.270;10.546;2022-09-03T06:42:55;76107.00;;;-147.06;50.55
54453;BME280;40363;52.270;10.546;2022-09-03T06:45:23;76086.47;;;-147.06;50.91
54453;BME280;40363;52.270;10.546;2022-09-03T06:47:50;76053.56;;;-147.06;50.08
54453;BME280;40363;52.270;10.546;2022-09-03T06:50:17;76033.03;;;-147.06;50.19
54453;BME280;40363;52.270;10.546;2022-09-03T06:52:44;75911.78;;;-147.06;48.06
54453;BME280;40363;52.270;10.546;2022-09-03T06:55:10;75954.94;;;-147.06;47.50
54453;BME280;40363;52.270;10.546;2022-09-03T06:57:39;75889.16;;;-147.06;46.25
54453;BME280;40363;52.270;10.546;2022-09-03T07:00:07;75848.06;;;-147.06;45.62
54453;BME280;40363;52.270;10.546;2022-09-03T07:02:33;75675.44;;;-147.06;43.32
54453;BME280;40363;52.270;10.546;2022-09-03T07:05:00;75568.59;;;-147.06;41.67
54453;BME280;40363;52.270;10.546;2022-09-03T07:07:30;75502.84;;;-147.06;40.87
54453;BME280;40363;52.270;10.546;2022-09-03T07:10:12;75367.22;;;-147.06;39.04
54453;BME280;40363;52.270;10.546;2022-09-03T07:12:44;75420.63;;;-147.06;39.33
54453;BME280;40363;52.270;10.546;2022-09-03T07:15:10;75445.31;;;-147.06;40.04
54453;BME280;40363;52.270;10.546;2022-09-03T07:17:37;75278.84;;;-147.06;37.72
54453;BME280;40363;52.270;10.546;2022-09-03T07:20:05;75387.75;;;-147.06;38.36
54453;BME280;40363;52.270;10.546;2022-09-03T07:22:32;75500.78;;;-147.06;39.41
54453;BME280;40363;52.270;10.546;2022-09-03T07:24:59;75476.13;;;-147.06;39.78
54453;BME280;40363;52.270;10.546;2022-09-03T07:27:26;75359.00;;;-147.06;38.68
54453;BME280;40363;52.270;10.546;2022-09-03T07:29:54;75235.72;;;-147.06;37.31
54453;BME280;40363;52.270;10.546;2022-09-03T07:32:21;75356.94;;;-147.06;38.74
54453;BME280;40363;52.270;10.546;2022-09-03T07:34:48;75447.34;;;-147.06;38.23
54453;BME280;40363;52.270;10.546;2022-09-03T07:37:17;75420.63;;;-147.06;39.13
54453;BME280;40363;52.270;10.546;2022-09-03T07:39:43;75416.53;;;-147.06;39.04
54453;BME280;40363;52.270;10.546;2022-09-03T07:42:21;75354.88;;;-147.06;38.16
54453;BME280;40363;52.270;10.546;2022-09-03T07:44:48;75250.09;;;-147.06;36.56
54453;BME280;40363;52.270;10.546;2022-09-03T07:47:16;75359.00;;;-147.06;38.04
54453;BME280;40363;52.270;10.546;2022-09-03T07:49:44;75383.66;;;-147.06;38.17
54453;BME280;40363;52.270;10.546;2022-09-03T07:52:11;75463.78;;;-147.06;39.22
54453;BME280;40363;52.270;10.546;2022-09-03T07:54:37;75416.53;;;-147.06;38.40
54453;BME280;40363;52.270;10.546;2022-09-03T07:57:05;75285.03;;;-147.06;37.01
54453;BME280;40363;52.270;10.546;2022-09-03T07:59:31;75237.75;;;-147.06;36.70
54453;BME280;40363;52.270;10.546;2022-09-03T08:01:58;75424.75;;;-147.06;38.56
54453;BME280;40363;52.270;10.546;2022-09-03T08:04:26;75393.94;;;-147.06;38.37
54453;BME280;40363;52.270;10.546;2022-09-03T08:06:53;75363.09;;;-147.06;38.58
54453;BME280;40363;52.270;10.546;2022-09-03T08:09:21;75319.94;;;-147.06;37.15
54453;BME280;40363;52.270;10.546;2022-09-03T08:11:48;75206.94;;;-147.06;36.34
54453;BME280;40363;52.270;10.546;2022-09-03T08:14:14;75091.88;;;-147.06;35.70
54453;BME280;40363;52.270;10.546;2022-09-03T08:16:43;75085.72;;;-147.06;35.04
54453;BME280;40363;52.270;10.546;2022-09-03T08:19:11;75098.03;;;-147.06;35.27
54453;BME280;40363;52.270;10.546;2022-09-03T08:21:40;75075.44;;;-147.06;35.25
54453;BME280;40363;52.270;10.546;2022-09-03T08:24:07;75054.91;;;-147.06;34.90
54453;BME280;40363;52.270;10.546;2022-09-03T08:26:36;75042.56;;;-147.06;34.66
54453;BME280;40363;52.270;10.546;2022-09-03T08:29:04;75069.28;;;-147.06;35.68
54453;BME280;40363;52.270;10.546;2022-09-03T08:31:32;75001.47;;;-147.06;34.61
54453;BME280;40363;52.270;10.546;2022-09-03T08:34:00;75063.13;;;-147.06;33.80
54453;BME280;40363;52.270;10.546;2022-09-03T08:36:32;75172.00;;;-147.06;34.40
54453;BME280;40363;52.270;10.546;2022-09-03T08:39:02;75081.59;;;-147.06;34.39
54453;BME280;40363;52.270;10.546;2022-09-03T08:41:37;74974.78;;;-147.06;32.83
54453;BME280;40363;52.270;10.546;2022-09-03T08:44:17;75206.94;;;-147.06;33.70
54453;BME280;40363;52.270;10.546;2022-09-03T08:46:49;75102.16;;;-147.06;33.02
54453;BME280;40363;52.270;10.546;2022-09-03T08:49:23;75260.38;;;-147.06;33.73
54453;BME280;40363;52.270;10.546;2022-09-03T08:51:53;75229.53;;;-147.06;33.00
54453;BME280;40363;52.270;10.546;2022-09-03T08:54:26;75223.38;;;-147.06;33.48
54453;BME280;40363;52.270;10.546;2022-09-03T08:56:55;75260.38;;;-147.06;33.59
54453;BME280;40363;52.270;10.546;2022-09-03T08:59:25;75159.69;;;-147.06;33.08
54453;BME280;40363;52.270;10.546;2022-09-03T09:01:55;75083.66;;;-147.06;31.99
54453;BME280;40363;52.270;10.546;2022-09-03T09:04:31;75223.38;;;-147.06;32.87
54453;BME280;40363;52.270;10.546;2022-09-03T09:07:09;75293.25;;;-147.06;33.59
54453;BME280;40363;52.270;10.546;2022-09-03T09:09:44;75163.78;;;-147.06;33.17
54453;BME280;40363;52.270;10.546;2022-09-03T09:12:20;75184.34;;;-147.06;32.97
54453;BME280;40363;52.270;10.546;2022-09-03T09:15:02;75235.72;;;-147.06;32.49
54453;BME280;40363;52.270;10.546;2022-09-03T09:17:39;75315.84;;;-147.06;32.94
54453;BME280;40363;52.270;10.546;2022-09-03T09:20:19;75252.16;;;-147.06;32.66
54453;BME280;40363;52.270;10.546;2022-09-03T09:22:50;75178.19;;;-147.06;32.39
54453;BME280;40363;52.270;10.546;2022-09-03T09:25:22;75120.66;;;-147.06;32.38
54453;BME280;40363;52.270;10.546;2022-09-03T09:27:54;75083.66;;;-147.06;32.11
54453;BME280;40363;52.270;10.546;2022-09-03T09:30:24;75048.72;;;-147.06;31.31
54453;BME280;40363;52.270;10.546;2022-09-03T09:32:51;75022.03;;;-147.06;31.17
54453;BME280;40363;52.270;10.546;2022-09-03T09:35:18;75040.50;;;-147.06;31.16
54453;BME280;40363;52.270;10.546;2022-09-03T09:37:49;75252.16;;;-147.06;33.30
54453;BME280;40363;52.270;10.546;2022-09-03T09:40:27;75100.09;;;-147.06;32.81
54453;BME280;40363;52.270;10.546;2022-09-03T09:43:04;75186.41;;;-147.06;32.49
54453;BME280;40363;52.270;10.546;2022-09-03T09:45:32;75217.22;;;-147.06;32.10
54453;BME280;40363;52.270;10.546;2022-09-03T09:48:00;75091.88;;;-147.06;31.82
54453;BME280;40363;52.270;10.546;2022-09-03T09:50:28;75038.47;;;-147.06;31.36
54453;BME280;40363;52.270;10.546;2022-09-03T09:53:02;75042.56;;;-147.06;31.56
54453;BME280;40363;52.270;10.546;2022-09-03T09:55:35;74974.78;;;-147.06;30.21
54453;BME280;40363;52.270;10.546;2022-09-03T09:58:06;75128.88;;;-147.06;30.32
54453;BME280;40363;52.270;10.546;2022-09-03T10:00:35;75336.41;;;-147.06;31.57
54453;BME280;40363;52.270;10.546;2022-09-03T10:03:08;75252.16;;;-147.06;31.74
54453;BME280;40363;52.270;10.546;2022-09-03T10:05:37;75317.91;;;-147.06;31.60
54453;BME280;40363;52.270;10.546;2022-09-03T10:08:13;75233.66;;;-147.06;30.99
54453;BME280;40363;52.270;10.546;2022-09-03T10:10:46;75227.50;;;-147.06;31.40
54453;BME280;40363;52.270;10.546;2022-09-03T10:13:17;75056.94;;;-147.06;30.65
54453;BME280;40363;52.270;10.546;2022-09-03T10:15:49;75024.06;;;-147.06;30.43
54453;BME280;40363;52.270;10.546;2022-09-03T10:18:23;75022.03;;;-147.06;30.69
54453;BME280;40363;52.270;10.546;2022-09-03T10:20:59;75211.06;;;-147.06;32.25
54453;BME280;40363;52.270;10.546;2022-09-03T10:23:36;75217.22;;;-147.06;31.38
54453;BME280;40363;52.270;10.546;2022-09-03T10:26:10;75188.44;;;-147.06;31.54
54453;BME280;40363;52.270;10.546;2022-09-03T10:28:40;75250.09;;;-147.06;32.09
54453;BME280;40363;52.270;10.546;2022-09-03T10:31:33;75194.63;;;-147.06;31.04
54453;BME280;40363;52.270;10.546;2022-09-03T10:34:06;75100.09;;;-147.06;30.89
54453;BME280;40363;52.270;10.546;2022-09-03T10:36:38;75044.63;;;-147.06;30.23
54453;BME280;40363;52.270;10.546;2022-09-03T10:39:14;74896.69;;;-147.06;29.66
54453;BME280;40363;52.270;10.546;2022-09-03T10:41:56;74874.09;;;-147.06;29.40
54453;BME280;40363;52.270;10.546;2022-09-03T10:44:39;75153.53;;;-147.06;30.83
54453;BME280;40363;52.270;10.546;2022-09-03T10:47:23;75001.47;;;-147.06;30.15
54453;BME280;40363;52.270;10.546;2022-09-03T10:50:00;75124.75;;;-147.06;30.80
54453;BME280;40363;52.270;10.546;2022-09-03T10:52:35;75231.59;;;-147.06;32.17
54453;BME280;40363;52.270;10.546;2022-09-03T10:55:15;75176.13;;;-147.06;31.50
54453;BME280;40363;52.270;10.546;2022-09-03T10:57:57;75231.59;;;-147.06;31.93
54453;BME280;40363;52.270;10.546;2022-09-03T11:00:32;75100.09;;;-147.06;30.95
54453;BME280;40363;52.270;10.546;2022-09-03T11:03:16;75182.28;;;-147.06;31.60
54453;BME280;40363;52.270;10.546;2022-09-03T11:05:55;75256.25;;;-147.06;32.51
54453;BME280;40363;52.270;10.546;2022-09-03T11:08:28;75243.94;;;-147.06;32.14
54453;BME280;40363;52.270;10.546;2022-09-03T11:11:06;75215.16;;;-147.06;31.59
54453;BME280;40363;52.270;10.546;2022-09-03T11:13:39;75227.50;;;-147.06;32.29
54453;BME280;40363;52.270;10.546;2022-09-03T11:16:14;75276.81;;;-147.06;32.73
54453;BME280;40363;52.270;10.546;2022-09-03T11:18:48;75250.09;;;-147.06;32.38
54453;BME280;40363;52.270;10.546;2022-09-03T11:21:19;75231.59;;;-147.06;32.39
54453;BME280;40363;52.270;10.546;2022-09-03T11:23:51;75206.94;;;-147.06;32.51
54453;BME280;40363;52.270;10.546;2022-09-03T11:26:19;75176.13;;;-147.06;32.36
54453;BME280;40363;52.270;10.546;2022-09-03T11:28:56;75202.84;;;-147.06;31.93
54453;BME280;40363;52.270;10.546;2022-09-03T11:31:31;75219.28;;;-147.06;32.78
54453;BME280;40363;52.270;10.546;2022-09-03T11:34:07;75169.97;;;-147.06;31.87
54453;BME280;40363;52.270;10.546;2022-09-03T11:36:38;75167.91;;;-147.06;31.74
54453;BME280;40363;52.270;10.546;2022-09-03T11:39:13;75149.41;;;-147.06;31.77
54453;BME280;40363;52.270;10.546;2022-09-03T11:41:55;75165.84;;;-147.06;31.62
54453;BME280;40363;52.270;10.546;2022-09-03T11:44:34;75153.53;;;-147.06;32.33
54453;BME280;40363;52.270;10.546;2022-09-03T11:47:12;75139.13;;;-147.06;32.12
54453;BME280;40363;52.270;10.546;2022-09-03T11:49:44;75194.63;;;-147.06;31.67
54453;BME280;40363;52.270;10.546;2022-09-03T11:52:25;75192.56;;;-147.06;32.22
54453;BME280;40363;52.270;10.546;2022-09-03T11:54:52;75155.56;;;-147.06;31.71
54453;BME280;40363;52.270;10.546;2022-09-03T11:57:22;75112.44;;;-147.06;31.20
54453;BME280;40363;52.270;10.546;2022-09-03T11:59:53;75132.97;;;-147.06;31.80
54453;BME280;40363;52.270;10.546;2022-09-03T12:02:26;75098.03;;;-147.06;31.60
54453;BME280;40363;52.270;10.546;2022-09-03T12:05:06;75151.47;;;-147.06;31.71
54453;BME280;40363;52.270;10.546;2022-09-03T12:08:06;75149.41;;;-147.06;31.41
54453;BME280;40363;52.270;10.546;2022-09-03T12:10:40;75174.06;;;-147.06;32.06
54453;BME280;40363;52.270;10.546;2022-09-03T12:13:20;75192.56;;;-147.06;32.45
54453;BME280;40363;52.270;10.546;2022-09-03T12:16:04;75174.06;;;-147.06;31.81
54453;BME280;40363;52.270;10.546;2022-09-03T12:18:39;75167.91;;;-147.06;32.43
54453;BME280;40363;52.270;10.546;2022-09-03T12:21:09;75194.63;;;-147.06;32.17
54453;BME280;40363;52.270;10.546;2022-09-03T12:23:42;75223.38;;;-147.06;32.33
54453;BME280;40363;52.270;10.546;2022-09-03T12:26:11;75209.00;;;-147.06;32.62
54453;BME280;40363;52.270;10.546;2022-09-03T12:28:40;75192.56;;;-147.06;32.30
54453;BME280;40363;52.270;10.546;2022-09-03T12:31:13;75132.97;;;-147.06;31.74
54453;BME280;40363;52.270;10.546;2022-09-03T12:33:50;75112.44;;;-147.06;32.17
54453;BME280;40363;52.270;10.546;2022-09-03T12:36:18;75141.19;;;-147.06;31.90
54453;BME280;40363;52.270;10.546;2022-09-03T12:38:45;75091.88;;;-147.06;31.91
54453;BME280;40363;52.270;10.546;2022-09-03T12:41:24;75124.75;;;-147.06;31.90
54453;BME280;40363;52.270;10.546;2022-09-03T12:43:53;75098.03;;;-147.06;31.60
54453;BME280;40363;52.270;10.546;2022-09-03T12:46:26;75063.13;;;-147.06;31.48
54453;BME280;40363;52.270;10.546;2022-09-03T12:48:55;75042.56;;;-147.06;31.20
54453;BME280;40363;52.270;10.546;2022-09-03T12:51:23;75071.34;;;-147.06;31.48
54453;BME280;40363;52.270;10.546;2022-09-03T12:53:51;75079.56;;;-147.06;31.05
54453;BME280;40363;52.270;10.546;2022-09-03T12:56:20;75151.47;;;-147.06;31.21
54453;BME280;40363;52.270;10.546;2022-09-03T12:58:51;75102.16;;;-147.06;31.33
54453;BME280;40363;52.270;10.546;2022-09-03T13:01:25;75063.13;;;-147.06;31.30